createdAt,value
2018-09-22T00:00:33.156Z,93.12
2018-09-22T00:01:33.193Z,93.88
2018-09-22T00:02:33.230Z,95.22
2018-09-22T00:03:33.269Z,95.03
2018-09-22T00:04:33.315Z,94.84
2018-09-22T00:05:33.351Z,94.08
2018-09-22T00:06:33.389Z,94.46
2018-09-22T00:07:33.427Z,93.60
2018-09-22T00:08:33.468Z,93.88
2018-09-22T00:09:33.607Z,94.27
2018-09-22T00:10:33.549Z,93.79
2018-09-22T00:11:33.585Z,93.88
2018-09-22T00:12:33.913Z,93.88
2018-09-22T00:13:33.665Z,93.51
2018-09-22T00:14:33.704Z,94.27
2018-09-22T00:15:33.744Z,93.32
2018-09-22T00:16:33.795Z,93.60
2018-09-22T00:17:33.824Z,92.55
2018-09-22T00:18:33.863Z,94.84
2018-09-22T00:19:33.905Z,94.84
2018-09-22T00:20:33.941Z,94.56
2018-09-22T00:21:33.993Z,93.88
2018-09-22T00:22:34.019Z,93.70
2018-09-22T00:23:34.061Z,93.03
2018-09-22T00:24:34.099Z,93.60
2018-09-22T00:25:34.140Z,94.17
2018-09-22T00:26:34.179Z,94.65
2018-09-22T00:27:34.225Z,94.84
2018-09-22T00:28:34.267Z,93.88
2018-09-22T00:29:34.309Z,95.51
2018-09-22T00:30:34.339Z,95.32
2018-09-22T00:31:34.388Z,95.22
2018-09-22T00:32:34.426Z,94.65
2018-09-22T00:33:34.454Z,95.03
2018-09-22T00:34:34.504Z,95.03
2018-09-22T00:35:34.543Z,95.32
2018-09-22T00:36:34.579Z,95.03
2018-09-22T00:37:34.615Z,93.70
2018-09-22T00:38:34.665Z,93.70
2018-09-22T00:39:34.703Z,95.41
2018-09-22T00:40:34.735Z,94.46
2018-09-22T00:41:34.772Z,93.88
2018-09-22T00:42:34.990Z,93.88
2018-09-22T00:43:34.849Z,95.03
2018-09-22T00:44:34.887Z,94.93
2018-09-22T00:45:34.928Z,94.84
2018-09-22T00:46:34.968Z,93.70
2018-09-22T00:47:35.012Z,93.98
2018-09-22T00:48:35.050Z,94.37
2018-09-22T00:49:35.085Z,94.84
2018-09-22T00:50:35.127Z,93.98
2018-09-22T00:51:35.165Z,93.88
2018-09-22T00:52:35.204Z,93.70
2018-09-22T00:53:35.243Z,93.79
2018-09-22T00:54:35.312Z,93.79
2018-09-22T00:55:35.330Z,93.88
2018-09-22T00:56:35.373Z,94.27
2018-09-22T00:57:35.400Z,93.32
2018-09-22T00:58:35.445Z,95.22
2018-09-22T00:59:35.483Z,95.32
2018-09-22T01:00:35.519Z,93.88
2018-09-22T01:01:35.562Z,94.46
2018-09-22T01:02:35.598Z,95.03
2018-09-22T01:03:35.638Z,95.41
2018-09-22T01:04:35.676Z,94.84
2018-09-22T01:05:35.717Z,95.03
2018-09-22T01:06:35.756Z,95.03
2018-09-22T01:07:35.795Z,93.88
2018-09-22T01:08:35.847Z,94.27
2018-09-22T01:09:35.883Z,93.79
2018-09-22T01:10:35.912Z,93.98
2018-09-22T01:11:35.953Z,93.79
2018-09-22T01:12:36.000Z,94.27
2018-09-22T01:13:36.034Z,94.08
2018-09-22T01:14:36.072Z,93.12
2018-09-22T01:15:36.143Z,94.84
2018-09-22T01:16:36.149Z,94.27
2018-09-22T01:17:36.200Z,94.46
2018-09-22T01:18:36.228Z,94.93
2018-09-22T01:19:36.270Z,94.65
2018-09-22T01:20:36.321Z,95.41
2018-09-22T01:21:36.350Z,96.46
2018-09-22T01:22:36.387Z,94.74
2018-09-22T01:23:36.426Z,95.98
2018-09-22T01:24:36.467Z,96.65
2018-09-22T01:25:36.507Z,96.32
2018-09-22T01:26:36.545Z,95.65
2018-09-22T01:27:36.587Z,95.27
2018-09-22T01:28:36.632Z,96.22
2018-09-22T01:29:36.666Z,96.61
2018-09-22T01:30:36.702Z,96.22
2018-09-22T01:31:36.743Z,95.75
2018-09-22T01:32:36.781Z,96.32
2018-09-22T01:33:36.827Z,96.32
2018-09-22T01:34:36.864Z,96.22
2018-09-22T01:35:36.901Z,96.51
2018-09-22T01:36:36.943Z,96.89
2018-09-22T01:37:36.987Z,97.27
2018-09-22T01:38:37.018Z,96.70
2018-09-22T01:39:37.069Z,97.56
2018-09-22T01:40:37.109Z,96.89
2018-09-22T01:41:37.138Z,96.32
2018-09-22T01:42:37.179Z,96.03
2018-09-22T01:43:37.216Z,96.51
2018-09-22T01:44:37.265Z,96.22
2018-09-22T01:45:37.297Z,97.08
2018-09-22T01:46:37.335Z,97.46
2018-09-22T01:47:37.376Z,96.70
2018-09-22T01:48:37.465Z,97.46
2018-09-22T01:49:37.456Z,96.80
2018-09-22T01:50:37.507Z,97.37
2018-09-22T01:51:37.536Z,97.37
2018-09-22T01:52:37.647Z,96.51
2018-09-22T01:53:37.621Z,97.56
2018-09-22T01:54:37.654Z,97.56
2018-09-22T01:55:37.703Z,96.98
2018-09-22T01:56:37.737Z,97.37
2018-09-22T01:57:37.774Z,97.66
2018-09-22T01:58:37.815Z,97.75
2018-09-22T01:59:37.853Z,97.56
2018-09-22T02:00:37.910Z,97.66
2018-09-22T02:01:38.179Z,98.03
2018-09-22T02:02:37.979Z,97.17
2018-09-22T02:03:38.015Z,97.56
2018-09-22T02:04:38.107Z,97.66
2018-09-22T02:06:38.348Z,97.85
2018-09-22T02:07:38.174Z,98.13
2018-09-22T02:08:38.210Z,98.13
2018-09-22T02:09:38.255Z,97.94
2018-09-22T02:10:38.309Z,97.94
2018-09-22T02:11:38.328Z,97.56
2018-09-22T02:12:38.367Z,97.94
2018-09-22T02:13:38.408Z,97.94
2018-09-22T02:14:38.445Z,97.99
2018-09-22T02:15:38.493Z,97.66
2018-09-22T02:16:39.090Z,97.89
2018-09-22T02:17:38.566Z,97.51
2018-09-22T02:18:38.605Z,98.08
2018-09-22T02:19:38.647Z,97.61
2018-09-22T02:20:38.686Z,98.27
2018-09-22T02:21:38.727Z,98.08
2018-09-22T02:22:38.765Z,98.66
2018-09-22T02:23:38.946Z,98.18
2018-09-22T02:24:38.844Z,98.75
2018-09-22T02:25:38.886Z,99.13
2018-09-22T02:26:38.925Z,98.85
2018-09-22T02:27:38.963Z,98.37
2018-09-22T02:28:39.011Z,99.04
2018-09-22T02:29:39.042Z,99.13
2018-09-22T02:30:39.084Z,98.85
2018-09-22T02:31:39.123Z,99.13
2018-09-22T02:32:39.163Z,98.85
2018-09-22T02:33:39.217Z,98.75
2018-09-22T02:34:39.241Z,99.13
2018-09-22T02:35:39.283Z,98.75
2018-09-22T02:36:39.321Z,99.42
2018-09-22T02:37:39.362Z,98.75
2018-09-22T02:38:39.415Z,99.52
2018-09-22T02:39:39.453Z,99.42
2018-09-22T02:40:39.481Z,98.75
2018-09-22T02:41:39.743Z,99.23
2018-09-22T02:42:39.619Z,99.23
2018-09-22T02:43:39.600Z,99.23
2018-09-22T02:44:39.641Z,99.42
2018-09-22T02:45:39.681Z,99.80
2018-09-22T02:46:39.719Z,99.42
2018-09-22T02:47:39.764Z,99.61
2018-09-22T02:48:39.799Z,99.52
2018-09-22T02:49:39.840Z,99.13
2018-09-22T02:50:39.880Z,99.04
2018-09-22T02:51:39.918Z,99.23
2018-09-22T02:52:39.967Z,99.99
2018-09-22T02:53:39.999Z,99.71
2018-09-22T02:54:40.191Z,99.71
2018-09-22T02:55:40.081Z,99.61
2018-09-22T02:56:40.121Z,99.04
2018-09-22T02:57:40.172Z,99.80
2018-09-22T02:58:40.200Z,99.61
2018-09-22T02:59:40.241Z,99.90
2018-09-22T03:00:40.280Z,99.42
2018-09-22T03:01:40.321Z,98.90
2018-09-22T03:02:40.370Z,99.37
2018-09-22T03:03:40.398Z,99.46
2018-09-22T03:04:40.447Z,98.99
2018-09-22T03:05:40.486Z,98.90
2018-09-22T03:06:40.579Z,98.70
2018-09-22T03:07:40.556Z,99.18
2018-09-22T03:08:40.648Z,98.99
2018-09-22T03:09:40.638Z,98.70
2018-09-22T03:10:40.675Z,99.18
2018-09-22T03:11:40.723Z,98.75
2018-09-22T03:12:40.756Z,98.70
2018-09-22T03:13:40.797Z,99.13
2018-09-22T03:14:40.844Z,99.04
2018-09-22T03:15:40.876Z,98.66
2018-09-22T03:16:40.918Z,98.66
2018-09-22T03:17:40.956Z,98.75
2018-09-22T03:18:41.304Z,99.23
2018-09-22T03:19:41.034Z,99.23
2018-09-22T03:20:41.076Z,99.23
2018-09-22T03:21:41.115Z,99.23
2018-09-22T03:22:41.155Z,99.80
2018-09-22T03:23:41.193Z,99.61
2018-09-22T03:24:41.235Z,99.52
2018-09-22T03:25:41.274Z,99.52
2018-09-22T03:26:41.312Z,98.94
2018-09-22T03:27:41.355Z,99.52
2018-09-22T03:28:41.396Z,99.90
2018-09-22T03:29:41.434Z,99.71
2018-09-22T03:30:41.473Z,99.42
2018-09-22T03:31:41.511Z,99.90
2018-09-22T03:32:41.553Z,99.99
2018-09-22T03:33:41.594Z,99.61
2018-09-22T03:34:41.640Z,99.61
2018-09-22T03:35:41.671Z,99.80
2018-09-22T03:36:41.711Z,99.04
2018-09-22T03:37:41.751Z,99.13
2018-09-22T03:38:41.799Z,99.13
2018-09-22T03:39:41.829Z,99.42
2018-09-22T03:40:41.870Z,99.71
2018-09-22T03:41:41.910Z,98.56
2018-09-22T03:42:41.952Z,99.23
2018-09-22T03:43:41.989Z,98.56
2018-09-22T03:44:42.030Z,99.23
2018-09-22T03:45:42.071Z,99.61
2018-09-22T03:46:42.109Z,99.61
2018-09-22T03:47:42.154Z,99.99
2018-09-22T03:48:42.197Z,99.61
2018-09-22T03:49:42.231Z,99.90
2018-09-22T03:50:42.269Z,99.61
2018-09-22T03:51:42.311Z,99.61
2018-09-22T03:52:42.352Z,99.61
2018-09-22T03:53:42.389Z,99.61
2018-09-22T03:54:42.430Z,99.99
2018-09-22T03:55:42.470Z,99.71
2018-09-22T03:56:42.519Z,99.90
2018-09-22T03:57:42.550Z,99.61
2018-09-22T03:58:42.626Z,99.04
2018-09-22T03:59:42.630Z,99.61
2018-09-22T04:00:42.673Z,99.76
2018-09-22T04:01:42.712Z,99.90
2018-09-22T04:02:42.749Z,99.71
2018-09-22T04:03:42.789Z,99.99
2018-09-22T04:04:42.857Z,99.76
2018-09-22T04:05:42.868Z,99.95
2018-09-22T04:06:42.908Z,99.80
2018-09-22T04:07:42.951Z,99.47
2018-09-22T04:08:42.988Z,99.23
2018-09-22T04:09:43.030Z,99.80
2018-09-22T04:10:43.171Z,99.99
2018-09-22T04:11:43.110Z,99.85
2018-09-22T04:12:43.152Z,99.90
2018-09-22T04:13:43.190Z,99.52
2018-09-22T04:14:43.229Z,99.52
2018-09-22T04:15:43.268Z,99.99
2018-09-22T04:16:43.313Z,99.61
2018-09-22T04:17:43.349Z,99.61
2018-09-22T04:18:43.389Z,98.94
2018-09-22T04:19:43.430Z,99.52
2018-09-22T04:20:43.469Z,99.90
2018-09-22T04:21:43.510Z,99.90
2018-09-22T04:22:43.548Z,99.66
2018-09-22T04:23:43.597Z,99.80
2018-09-22T04:24:43.635Z,99.66
2018-09-22T04:25:43.669Z,99.66
2018-09-22T04:26:43.707Z,99.23
2018-09-22T04:27:43.749Z,99.32
2018-09-22T04:28:43.846Z,99.04
2018-09-22T04:29:43.829Z,98.85
2018-09-22T04:30:43.981Z,99.23
2018-09-22T04:31:44.021Z,99.61
2018-09-22T04:32:44.063Z,99.13
2018-09-22T04:33:44.190Z,99.13
2018-09-22T04:34:44.125Z,98.66
2018-09-22T04:35:44.068Z,98.94
2018-09-22T04:36:44.109Z,99.61
2018-09-22T04:37:44.170Z,99.90
2018-09-22T04:38:44.188Z,98.47
2018-09-22T04:39:44.231Z,98.75
2018-09-22T04:40:44.270Z,99.42
2018-09-22T04:41:44.309Z,99.42
2018-09-22T04:42:44.350Z,99.13
2018-09-22T04:43:44.388Z,98.27
2018-09-22T04:44:44.430Z,98.75
2018-09-22T04:45:44.470Z,98.99
2018-09-22T04:46:44.596Z,98.75
2018-09-22T04:47:44.549Z,99.23
2018-09-22T04:48:44.593Z,98.85
2018-09-22T04:49:44.629Z,99.37
2018-09-22T04:50:44.675Z,98.71
2018-09-22T04:51:44.710Z,99.23
2018-09-22T04:52:44.749Z,99.23
2018-09-22T04:53:44.791Z,99.04
2018-09-22T04:54:44.830Z,99.76
2018-09-22T04:55:44.871Z,99.32
2018-09-22T04:56:44.909Z,98.99
2018-09-22T04:57:44.952Z,98.80
2018-09-22T04:58:44.992Z,99.23
2018-09-22T04:59:45.035Z,99.42
2018-09-22T05:00:45.077Z,99.04
2018-09-22T05:01:45.112Z,99.52
2018-09-22T05:02:45.159Z,99.61
2018-09-22T05:03:45.192Z,99.61
2018-09-22T05:04:45.234Z,99.80
2018-09-22T05:05:45.274Z,99.61
2018-09-22T05:06:45.309Z,99.61
2018-09-22T05:07:45.350Z,99.42
2018-09-22T05:08:45.390Z,99.52
2018-09-22T05:09:45.430Z,99.04
2018-09-22T05:10:45.479Z,99.80
2018-09-22T05:11:45.508Z,99.04
2018-09-22T05:12:45.652Z,99.71
2018-09-22T05:13:45.590Z,99.71
2018-09-22T05:14:45.636Z,99.42
2018-09-22T05:15:45.669Z,99.04
2018-09-22T05:16:45.709Z,99.23
2018-09-22T05:17:45.749Z,99.42
2018-09-22T05:18:45.788Z,99.23
2018-09-22T05:19:45.830Z,99.13
2018-09-22T05:20:45.868Z,99.13
2018-09-22T05:21:45.909Z,99.32
2018-09-22T05:22:45.952Z,99.42
2018-09-22T05:23:45.989Z,99.18
2018-09-22T05:24:46.046Z,98.99
2018-09-22T05:25:46.071Z,99.13
2018-09-22T05:26:46.106Z,99.18
2018-09-22T05:27:46.157Z,99.08
2018-09-22T05:28:46.193Z,99.27
2018-09-22T05:29:46.229Z,98.42
2018-09-22T05:30:46.274Z,98.61
2018-09-22T05:31:46.307Z,98.70
2018-09-22T05:32:46.346Z,98.75
2018-09-22T05:33:46.388Z,98.51
2018-09-22T05:34:46.836Z,98.56
2018-09-22T05:35:46.464Z,98.51
2018-09-22T05:36:46.504Z,98.66
2018-09-22T05:37:46.546Z,98.99
2018-09-22T05:38:47.100Z,98.56
2018-09-22T05:39:46.624Z,98.47
2018-09-22T05:40:46.664Z,98.75
2018-09-22T05:41:46.736Z,98.75
2018-09-22T05:42:46.765Z,98.66
2018-09-22T05:43:46.783Z,99.23
2018-09-22T05:44:46.833Z,98.56
2018-09-22T05:45:46.861Z,98.75
2018-09-22T05:46:46.899Z,98.66
2018-09-22T05:47:46.941Z,98.56
2018-09-22T05:48:46.985Z,98.56
2018-09-22T05:49:47.023Z,99.32
2018-09-22T05:50:47.064Z,98.56
2018-09-22T05:51:47.100Z,98.94
2018-09-22T05:52:47.141Z,98.75
2018-09-22T05:53:47.183Z,99.32
2018-09-22T05:54:47.223Z,98.47
2018-09-22T05:55:47.261Z,99.52
2018-09-22T05:56:47.301Z,98.47
2018-09-22T05:57:47.341Z,99.04
2018-09-22T05:58:47.377Z,98.90
2018-09-22T05:59:47.419Z,99.57
2018-09-22T06:00:47.466Z,99.37
2018-09-22T06:01:47.502Z,99.47
2018-09-22T06:02:47.538Z,99.47
2018-09-22T06:03:47.811Z,99.47
2018-09-22T06:04:47.618Z,99.37
2018-09-22T06:05:47.656Z,99.28
2018-09-22T06:06:47.695Z,99.47
2018-09-22T06:07:47.737Z,99.47
2018-09-22T06:08:47.777Z,99.28
2018-09-22T06:09:47.867Z,99.37
2018-09-22T06:10:47.856Z,99.08
2018-09-22T06:11:47.898Z,99.47
2018-09-22T06:12:47.937Z,99.28
2018-09-22T06:13:47.977Z,99.37
2018-09-22T06:14:48.021Z,99.37
2018-09-22T06:15:48.062Z,98.52
2018-09-22T06:16:48.097Z,99.08
2018-09-22T06:17:48.136Z,99.18
2018-09-22T06:18:48.177Z,99.28
2018-09-22T06:19:48.216Z,98.99
2018-09-22T06:20:48.258Z,98.80
2018-09-22T06:21:48.316Z,99.37
2018-09-22T06:22:48.339Z,98.80
2018-09-22T06:23:48.376Z,99.37
2018-09-22T06:24:48.417Z,99.47
2018-09-22T06:25:48.456Z,99.47
2018-09-22T06:26:48.495Z,99.28
2018-09-22T06:27:48.541Z,99.28
2018-09-22T06:28:48.608Z,98.71
2018-09-22T06:29:48.617Z,98.61
2018-09-22T06:30:48.655Z,98.61
2018-09-22T06:31:48.696Z,98.61
2018-09-22T06:32:48.739Z,98.99
2018-09-22T06:33:48.776Z,99.57
2018-09-22T06:34:48.816Z,99.28
2018-09-22T06:35:48.864Z,98.90
2018-09-22T06:36:48.896Z,99.57
2018-09-22T06:37:48.939Z,98.71
2018-09-22T06:38:48.994Z,99.47
2018-09-22T06:39:49.022Z,99.95
2018-09-22T06:40:49.093Z,99.76
2018-09-22T06:41:49.098Z,99.47
2018-09-22T06:42:49.393Z,98.90
2018-09-22T06:43:49.177Z,99.66
2018-09-22T06:44:49.216Z,99.99
2018-09-22T06:45:49.257Z,99.14
2018-09-22T06:46:49.295Z,99.71
2018-09-22T06:47:49.341Z,99.52
2018-09-22T06:48:49.395Z,99.80
2018-09-22T06:49:49.418Z,99.71
2018-09-22T06:50:49.459Z,99.99
2018-09-22T06:51:49.506Z,99.80
2018-09-22T06:52:49.689Z,99.04
2018-09-22T06:53:49.579Z,99.99
2018-09-22T06:54:49.698Z,99.80
2018-09-22T06:55:49.726Z,99.52
2018-09-22T06:56:49.706Z,99.52
2018-09-22T06:57:49.742Z,99.71
2018-09-22T06:58:49.784Z,99.71
2018-09-22T06:59:49.864Z,99.62
2018-09-22T07:00:49.860Z,99.80
2018-09-22T07:01:49.901Z,99.62
2018-09-22T07:02:49.945Z,99.62
2018-09-22T07:03:49.981Z,99.71
2018-09-22T07:04:50.021Z,98.85
2018-09-22T07:05:50.072Z,98.37
2018-09-22T07:06:50.104Z,99.23
2018-09-22T07:07:50.149Z,99.33
2018-09-22T07:08:50.185Z,99.90
2018-09-22T07:09:50.225Z,99.62
2018-09-22T07:10:50.263Z,99.62
2018-09-22T07:11:50.305Z,99.71
2018-09-22T07:12:50.370Z,99.99
2018-09-22T07:13:50.470Z,99.99
2018-09-22T07:14:50.434Z,99.99
2018-09-22T07:15:50.479Z,99.80
2018-09-22T07:16:50.510Z,99.99
2018-09-22T07:17:50.546Z,99.09
2018-09-22T07:18:50.588Z,99.99
2018-09-22T07:19:50.629Z,99.95
2018-09-22T07:20:50.672Z,99.99
2018-09-22T07:21:50.710Z,99.99
2018-09-22T07:22:50.755Z,99.99
2018-09-22T07:23:50.796Z,99.99
2018-09-22T07:24:50.831Z,99.99
2018-09-22T07:25:50.873Z,99.99
2018-09-22T07:26:50.922Z,99.99
2018-09-22T07:27:50.962Z,99.99
2018-09-22T07:28:50.998Z,99.95
2018-09-22T07:29:51.085Z,99.99
2018-09-22T07:30:51.130Z,99.99
2018-09-22T07:31:51.121Z,99.99
2018-09-22T07:32:51.162Z,99.99
2018-09-22T07:33:51.200Z,99.99
2018-09-22T07:34:51.238Z,99.99
2018-09-22T07:35:51.278Z,99.99
2018-09-22T07:36:51.352Z,99.99
2018-09-22T07:37:51.362Z,99.99
2018-09-22T07:38:51.407Z,99.99
2018-09-22T07:39:51.438Z,99.99
2018-09-22T07:40:51.481Z,99.99
2018-09-22T07:41:51.529Z,99.99
2018-09-22T07:42:51.566Z,99.99
2018-09-22T07:43:51.603Z,99.99
2018-09-22T07:44:51.644Z,99.99
2018-09-22T07:45:51.753Z,99.99
2018-09-22T07:46:51.729Z,99.99
2018-09-22T07:47:51.778Z,99.99
2018-09-22T07:48:51.816Z,99.99
2018-09-22T07:49:51.856Z,99.99
2018-09-22T07:50:51.886Z,99.99
2018-09-22T07:51:51.943Z,99.99
2018-09-22T07:52:51.986Z,99.99
2018-09-22T07:53:52.020Z,99.99
2018-09-22T07:54:52.054Z,99.99
2018-09-22T07:55:52.111Z,99.99
2018-09-22T07:56:52.142Z,99.99
2018-09-22T07:57:52.187Z,99.99
2018-09-22T07:58:52.217Z,99.99
2018-09-22T07:59:52.259Z,99.99
2018-09-22T08:00:52.297Z,99.99
2018-09-22T08:01:52.340Z,99.99
2018-09-22T08:02:52.383Z,99.99
2018-09-22T08:03:52.422Z,99.99
2018-09-22T08:04:52.464Z,99.99
2018-09-22T08:05:52.502Z,99.99
2018-09-22T08:06:52.546Z,99.99
2018-09-22T08:07:52.587Z,99.99
2018-09-22T08:08:52.627Z,99.99
2018-09-22T08:09:52.670Z,99.99
2018-09-22T08:10:52.711Z,99.99
2018-09-22T08:11:52.750Z,99.99
2018-09-22T08:12:52.792Z,99.99
2018-09-22T08:13:52.833Z,99.99
2018-09-22T08:14:52.874Z,99.99
2018-09-22T08:15:52.923Z,99.99
2018-09-22T08:16:52.965Z,99.99
2018-09-22T08:17:52.999Z,99.99
2018-09-22T08:18:53.042Z,99.99
2018-09-22T08:19:53.080Z,99.99
2018-09-22T08:20:53.126Z,99.99
2018-09-22T08:21:53.166Z,99.99
2018-09-22T08:22:53.204Z,99.99
2018-09-22T08:23:53.251Z,99.99
2018-09-22T08:24:53.290Z,99.99
2018-09-22T08:25:53.329Z,99.99
2018-09-22T08:26:53.372Z,99.99
2018-09-22T08:27:53.413Z,99.99
2018-09-22T08:28:53.455Z,99.99
2018-09-22T08:29:53.505Z,99.99
2018-09-22T08:30:53.538Z,99.99
2018-09-22T08:31:53.579Z,99.99
2018-09-22T08:32:53.631Z,99.99
2018-09-22T08:33:53.663Z,99.99
2018-09-22T08:34:53.712Z,99.99
2018-09-22T08:35:53.749Z,99.99
2018-09-22T08:36:53.921Z,99.99
2018-09-22T08:37:53.829Z,99.99
2018-09-22T08:38:53.881Z,99.99
2018-09-22T08:39:53.911Z,99.99
2018-09-22T08:40:53.956Z,99.99
2018-09-22T08:41:53.995Z,99.99
2018-09-22T08:42:54.058Z,99.99
2018-09-22T08:43:54.100Z,99.99
2018-09-22T08:44:54.179Z,99.99
2018-09-22T08:45:54.162Z,99.99
2018-09-22T08:46:54.208Z,99.99
2018-09-22T08:47:54.250Z,99.99
2018-09-22T08:48:54.290Z,99.99
2018-09-22T08:49:54.360Z,99.99
2018-09-22T08:50:54.585Z,99.99
2018-09-22T08:51:54.430Z,99.99
2018-09-22T08:52:54.523Z,99.99
2018-09-22T08:53:54.500Z,99.99
2018-09-22T08:54:54.546Z,99.99
2018-09-22T08:55:54.582Z,99.99
2018-09-22T08:56:54.633Z,99.99
2018-09-22T08:57:54.726Z,99.99
2018-09-22T08:58:54.707Z,99.99
2018-09-22T08:59:54.758Z,99.99
2018-09-22T09:00:54.797Z,99.99
2018-09-22T09:01:54.844Z,99.99
2018-09-22T09:02:54.879Z,99.99
2018-09-22T09:03:54.916Z,99.99
2018-09-22T09:04:54.997Z,99.99
2018-09-22T09:05:55.081Z,99.99
2018-09-22T09:06:55.043Z,99.99
2018-09-22T09:07:55.084Z,99.99
2018-09-22T09:08:55.126Z,99.99
2018-09-22T09:09:55.167Z,99.99
2018-09-22T09:10:55.209Z,99.99
2018-09-22T09:11:55.252Z,99.99
2018-09-22T09:12:55.307Z,99.99
2018-09-22T09:13:55.353Z,99.99
2018-09-22T09:14:55.378Z,99.99
2018-09-22T09:15:55.437Z,99.99
2018-09-22T09:16:55.494Z,99.99
2018-09-22T09:17:55.511Z,99.99
2018-09-22T09:18:55.549Z,99.99
2018-09-22T09:19:55.589Z,99.99
2018-09-22T09:20:55.632Z,99.99
2018-09-22T09:21:55.671Z,99.99
2018-09-22T09:22:55.712Z,99.99
2018-09-22T09:23:55.757Z,99.99
2018-09-22T09:24:55.799Z,99.99
2018-09-22T09:25:55.844Z,99.99
2018-09-22T09:26:55.882Z,99.99
2018-09-22T09:27:55.924Z,99.99
2018-09-22T09:28:55.963Z,99.99
2018-09-22T09:29:56.062Z,99.99
2018-09-22T09:30:56.047Z,99.99
2018-09-22T09:31:56.089Z,99.99
2018-09-22T09:32:56.131Z,99.99
2018-09-22T09:33:56.173Z,99.99
2018-09-22T09:34:56.215Z,99.99
2018-09-22T09:35:56.263Z,99.99
2018-09-22T09:36:56.315Z,99.99
2018-09-22T09:37:56.340Z,99.99
2018-09-22T09:38:56.380Z,99.99
2018-09-22T09:39:56.423Z,99.99
2018-09-22T09:40:56.464Z,99.99
2018-09-22T09:41:56.522Z,99.99
2018-09-22T09:42:56.547Z,99.99
2018-09-22T09:43:56.591Z,99.99
2018-09-22T09:44:56.632Z,99.99
2018-09-22T09:45:56.675Z,99.99
2018-09-22T09:46:56.714Z,99.99
2018-09-22T09:47:56.856Z,99.99
2018-09-22T09:48:56.798Z,99.99
2018-09-22T09:49:56.839Z,99.99
2018-09-22T09:50:56.882Z,99.99
2018-09-22T09:51:56.927Z,99.99
2018-09-22T09:52:56.980Z,99.99
2018-09-22T09:53:57.008Z,99.99
2018-09-22T09:54:57.089Z,99.99
2018-09-22T09:55:57.090Z,99.99
2018-09-22T09:56:57.131Z,99.99
2018-09-22T09:57:57.173Z,99.99
2018-09-22T09:58:57.214Z,99.99
2018-09-22T09:59:57.256Z,99.99
2018-09-22T10:00:57.298Z,99.99
2018-09-22T10:01:57.342Z,99.99
2018-09-22T10:02:57.381Z,99.99
2018-09-22T10:03:57.424Z,99.99
2018-09-22T10:04:57.464Z,99.99
2018-09-22T10:05:57.508Z,99.99
2018-09-22T10:06:57.547Z,99.91
2018-09-22T10:07:57.589Z,99.99
2018-09-22T10:08:57.634Z,99.99
2018-09-22T10:09:57.675Z,99.99
2018-09-22T10:10:57.723Z,99.99
2018-09-22T10:11:57.775Z,99.77
2018-09-22T10:12:57.800Z,98.82
2018-09-22T10:13:57.850Z,98.43
2018-09-22T10:14:57.885Z,99.10
2018-09-22T10:15:57.926Z,99.01
2018-09-22T10:16:58.080Z,98.91
2018-09-22T10:17:58.052Z,98.24
2018-09-22T10:18:58.051Z,98.62
2018-09-22T10:19:58.094Z,98.33
2018-09-22T10:20:58.152Z,97.76
2018-09-22T10:21:58.182Z,96.51
2018-09-22T10:22:58.221Z,95.65
2018-09-22T10:23:58.264Z,95.31
2018-09-22T10:24:58.305Z,95.12
2018-09-22T10:25:58.351Z,94.64
2018-09-22T10:26:58.388Z,94.64
2018-09-22T10:27:58.457Z,94.78
2018-09-22T10:28:58.519Z,94.88
2018-09-22T10:29:58.515Z,94.69
2018-09-22T10:30:58.559Z,94.93
2018-09-22T10:31:58.597Z,95.21
2018-09-22T10:32:58.650Z,93.49
2018-09-22T10:33:58.684Z,93.15
2018-09-22T10:34:58.733Z,92.38
2018-09-22T10:35:58.770Z,91.13
2018-09-22T10:36:58.820Z,90.31
2018-09-22T10:37:58.857Z,90.12
2018-09-22T10:38:58.895Z,88.87
2018-09-22T10:39:58.941Z,90.83
2018-09-22T10:40:59.044Z,89.39
2018-09-22T10:41:59.024Z,88.62
2018-09-22T10:42:59.068Z,87.81
2018-09-22T10:43:59.129Z,86.22
2018-09-22T10:44:59.153Z,86.89
2018-09-22T10:45:59.196Z,83.52
2018-09-22T10:46:59.240Z,84.19
2018-09-22T10:47:59.284Z,82.32
2018-09-22T10:48:59.336Z,82.27
2018-09-22T10:49:59.375Z,81.40
2018-09-22T10:50:59.410Z,81.02
2018-09-22T10:51:59.456Z,81.30
2018-09-22T10:52:59.547Z,79.96
2018-09-22T10:53:59.540Z,81.02
2018-09-22T10:54:59.590Z,79.96
2018-09-22T10:55:59.626Z,80.73
2018-09-22T10:56:59.667Z,81.70
2018-09-22T10:57:59.715Z,81.21
2018-09-22T10:58:59.756Z,81.50
2018-09-22T10:59:59.806Z,79.58
2018-09-22T11:00:59.840Z,79.67
2018-09-22T11:01:59.885Z,80.35
2018-09-22T11:02:59.933Z,80.15
2018-09-22T11:03:59.975Z,77.26
2018-09-22T11:05:00.014Z,78.13
2018-09-22T11:06:00.097Z,76.06
2018-09-22T11:07:00.104Z,74.90
2018-09-22T11:08:00.144Z,76.53
2018-09-22T11:09:00.209Z,76.25
2018-09-22T11:10:00.245Z,76.63
2018-09-22T11:11:00.274Z,74.51
2018-09-22T11:12:00.321Z,73.94
2018-09-22T11:13:00.372Z,73.26
2018-09-22T11:14:00.405Z,75.57
2018-09-22T11:15:00.447Z,74.13
2018-09-22T11:16:00.496Z,73.07
2018-09-22T11:17:00.535Z,73.26
2018-09-22T11:18:00.579Z,73.51
2018-09-22T11:19:00.621Z,74.09
2018-09-22T11:20:00.668Z,73.80
2018-09-22T11:21:00.714Z,72.84
2018-09-22T11:22:00.752Z,71.69
2018-09-22T11:23:00.795Z,71.59
2018-09-22T11:24:00.845Z,71.78
2018-09-22T11:25:00.882Z,71.69
2018-09-22T11:26:00.929Z,73.13
2018-09-22T11:27:01.004Z,72.97
2018-09-22T11:28:01.011Z,72.20
2018-09-22T11:29:01.055Z,71.62
2018-09-22T11:30:01.109Z,72.88
2018-09-22T11:31:01.157Z,72.11
2018-09-22T11:32:01.208Z,72.78
2018-09-22T11:33:01.235Z,71.72
2018-09-22T11:34:01.271Z,71.14
2018-09-22T11:35:01.330Z,72.30
2018-09-22T11:36:01.361Z,71.04
2018-09-22T11:37:01.405Z,71.34
2018-09-22T11:38:01.446Z,69.79
2018-09-22T11:39:01.567Z,71.81
2018-09-22T11:40:01.536Z,69.31
2018-09-22T11:41:01.575Z,69.41
2018-09-22T11:42:01.626Z,70.09
2018-09-22T11:43:01.661Z,70.28
2018-09-22T11:44:01.708Z,69.67
2018-09-22T11:45:01.753Z,69.67
2018-09-22T11:46:01.795Z,70.40
2018-09-22T11:47:01.890Z,71.01
2018-09-22T11:48:01.883Z,71.36
2018-09-22T11:49:01.924Z,70.98
2018-09-22T11:50:01.977Z,71.26
2018-09-22T11:51:02.021Z,70.30
2018-09-22T11:52:02.054Z,69.92
2018-09-22T11:53:02.096Z,70.50
2018-09-22T11:54:02.141Z,71.04
2018-09-22T11:55:02.182Z,70.84
2018-09-22T11:56:02.225Z,69.79
2018-09-22T11:57:02.519Z,70.98
2018-09-22T11:58:02.323Z,71.08
2018-09-22T11:59:02.365Z,71.55
2018-09-22T12:00:02.399Z,70.78
2018-09-22T12:01:02.442Z,69.82
2018-09-22T12:02:02.544Z,70.21
2018-09-22T12:03:02.540Z,69.34
2018-09-22T12:04:02.574Z,68.41
2018-09-22T12:05:02.618Z,70.05
2018-09-22T12:06:02.701Z,68.60
2018-09-22T12:07:02.703Z,67.93
2018-09-22T12:08:02.746Z,67.07
2018-09-22T12:09:02.791Z,66.88
2018-09-22T12:10:02.833Z,66.10
2018-09-22T12:11:02.874Z,64.37
2018-09-22T12:12:02.948Z,64.28
2018-09-22T12:13:02.964Z,66.20
2018-09-22T12:14:03.073Z,66.39
2018-09-22T12:15:03.048Z,66.10
2018-09-22T12:16:03.092Z,66.58
2018-09-22T12:17:03.145Z,66.49
2018-09-22T12:18:03.183Z,68.03
2018-09-22T12:19:03.224Z,68.03
2018-09-22T12:20:03.378Z,67.83
2018-09-22T12:21:03.311Z,66.39
2018-09-22T12:22:03.352Z,64.76
2018-09-22T12:23:03.393Z,64.86
2018-09-22T12:24:03.439Z,65.20
2018-09-22T12:25:03.487Z,65.43
2018-09-22T12:26:03.528Z,66.01
2018-09-22T12:27:03.567Z,65.33
2018-09-22T12:28:03.618Z,65.24
2018-09-22T12:29:03.654Z,63.99
2018-09-22T12:30:03.750Z,63.12
2018-09-22T12:31:03.744Z,64.56
2018-09-22T12:32:03.866Z,62.26
2018-09-22T12:33:03.827Z,63.51
2018-09-22T12:34:03.872Z,62.26
2018-09-22T12:35:03.913Z,62.57
2018-09-22T12:36:03.957Z,63.44
2018-09-22T12:37:04.008Z,62.38
2018-09-22T12:38:04.044Z,62.54
2018-09-22T12:39:04.101Z,62.96
2018-09-22T12:40:04.136Z,61.61
2018-09-22T12:41:04.182Z,62.48
2018-09-22T12:42:04.219Z,61.42
2018-09-22T12:43:04.259Z,61.97
2018-09-22T12:44:04.366Z,61.61
2018-09-22T12:45:04.348Z,63.15
2018-09-22T12:46:04.452Z,63.15
2018-09-22T12:47:04.433Z,62.67
2018-09-22T12:48:04.479Z,60.84
2018-09-22T12:49:04.521Z,61.13
2018-09-22T12:50:04.566Z,61.04
2018-09-22T12:51:04.610Z,61.04
2018-09-22T12:52:04.654Z,61.13
2018-09-22T12:53:04.702Z,61.13
2018-09-22T12:54:04.737Z,61.13